North Metro, Georgia
Current Conditions -  °F | °C
As of 8:45 PM on Thursday 23 Oct 2014 (Local Time) from KLZU Reporting Station
Clear Clear  
Wind Chill: 55°   Ceiling: Unl
Heat Index: 55°   Visibility: 10mi
Dew Point: 41°   Wind: 0mph
Humidity: 58%   Direction: NA
Pressure: 30.04"   Gusts: NA
Location:  33.9775°N, 84.1495°W
Report Text: KLZU 240045Z 00000KT 10SM CLR 13/05 A3004 RMK JW
Loading
Personal Weather Stations






























Interactive Weather Map
Tropical Storm Tracking
New forecast layout! Learn more

10-Day Weather Forecast

Advertisements
Track Severe Weather on mobile